Terminal Aerodrome Forecast
Issued by NWS Cleveland, OH

Home | Current Version | Previous Version | Graphics & Text | Print | Product List | Glossary On
Versions: 1 2 3 4 5 6 7 8 9 10 11 12 13 14
000
FTUS41 KCLE 170500
TAFERI
TAF
KERI 170531Z 1706/1806 27007KT 5SM BR VCSH BKN012 OVC025
     FM170900 33005KT 5SM BR VCSH SCT007 OVC012
     FM171300 34006KT P6SM BKN012
     FM171500 34008KT P6SM SCT035 SCT050
     FM171800 35007KT P6SM FEW050 SCT100=

USA.gov is the U.S. government's official web portal to all federal, state and local government web resources and services.